Kennebec, North Carolina
Current Conditions -  °F | °C
As of 3:15 AM on Monday 26 Jan 2015 (Local Time) from KHRJ Reporting Station
Scattered Clouds Scattered Clouds  
Wind Chill: 38°   Ceiling: Unl
Heat Index: 41°   Visibility: 10mi
Dew Point: 37°   Wind: 5mph
Humidity: 85%   Direction: 140°SE
Pressure: 29.73"   Gusts: NA
Location:  35.5718°N, 78.7112°W
Report Text: KHRJ 260815Z AUTO 14004KT 10SM SCT110 05/03 A2973 RMK AO2 T00480025
Loading
Personal Weather Stations






























Interactive Weather Map New forecast layout! Learn more

10-Day Weather Forecast

Advertisements
Track Severe Weather on mobile